createdAt,value
2023-02-08T00:00:50.159Z,15.10
2023-02-08T00:03:37.497Z,15.02
2023-02-08T00:06:24.939Z,13.90
2023-02-08T00:09:12.280Z,17.00
2023-02-08T00:11:59.958Z,15.65
2023-02-08T00:14:47.522Z,16.85
2023-02-08T00:17:36.346Z,16.58
2023-02-08T00:20:23.934Z,16.92
2023-02-08T00:23:11.932Z,15.50
2023-02-08T00:25:59.603Z,17.40
2023-02-08T00:28:47.139Z,17.67
2023-02-08T00:31:37.897Z,17.05
2023-02-08T00:34:26.845Z,18.42
2023-02-08T00:37:14.276Z,19.27
2023-02-08T00:40:02.694Z,18.50
2023-02-08T00:42:50.773Z,21.58
2023-02-08T00:45:38.478Z,21.52
2023-02-08T00:48:25.785Z,20.00
2023-02-08T00:51:16.694Z,19.65
2023-02-08T00:54:04.126Z,21.38
2023-02-08T00:56:51.974Z,19.65
2023-02-08T00:59:39.495Z,20.88
2023-02-08T01:02:27.373Z,18.17
2023-02-08T01:05:14.798Z,18.10
2023-02-08T01:08:03.430Z,16.73
2023-02-08T01:10:50.996Z,17.40
2023-02-08T01:13:39.301Z,19.80
2023-02-08T01:16:31.896Z,22.88
2023-02-08T01:19:21.285Z,20.30
2023-02-08T01:22:09.023Z,17.42
2023-02-08T01:24:57.810Z,13.32
2023-02-08T01:27:45.436Z,13.70
2023-02-08T01:30:33.539Z,13.30
2023-02-08T01:33:21.276Z,14.30
2023-02-08T01:36:09.933Z,12.05
2023-02-08T01:38:57.610Z,11.10
2023-02-08T01:41:47.469Z,10.68
2023-02-08T01:45:28.924Z,9.73
2023-02-08T01:48:21.035Z,9.82
2023-02-08T01:51:12.194Z,9.00
2023-02-08T01:54:00.545Z,9.95
2023-02-08T01:56:51.075Z,9.75
2023-02-08T01:59:43.952Z,7.97
2023-02-08T02:02:32.967Z,8.95
2023-02-08T02:05:22.233Z,9.65
2023-02-08T02:08:10.994Z,9.20
2023-02-08T02:10:58.484Z,8.98
2023-02-08T02:13:50.740Z,8.65
2023-02-08T02:16:38.778Z,8.52
2023-02-08T02:19:34.579Z,7.75
2023-02-08T02:23:02.968Z,7.63
2023-02-08T02:29:40.994Z,8.10
2023-02-08T02:32:43.459Z,8.48
2023-02-08T02:35:43.651Z,7.00
2023-02-08T02:38:42.965Z,7.63
2023-02-08T02:41:57.623Z,7.50
2023-02-08T02:44:54.643Z,7.18
2023-02-08T02:50:38.384Z,7.10
2023-02-08T02:53:30.701Z,7.60
2023-02-08T02:56:22.467Z,6.80
2023-02-08T02:59:13.171Z,7.75
2023-02-08T03:02:00.812Z,7.32
2023-02-08T03:04:55.689Z,7.53
2023-02-08T03:08:10.467Z,7.13
2023-02-08T03:11:15.846Z,6.15
2023-02-08T03:14:16.407Z,7.07
2023-02-08T03:17:17.571Z,6.93
2023-02-08T03:20:10.994Z,6.60
2023-02-08T03:23:03.587Z,7.68
2023-02-08T03:26:00.671Z,7.03
2023-02-08T03:28:56.897Z,6.93
2023-02-08T03:31:52.453Z,7.68
2023-02-08T03:34:48.197Z,7.50
2023-02-08T03:37:42.126Z,6.72
2023-02-08T03:40:33.744Z,6.93
2023-02-08T03:43:25.288Z,7.25
2023-02-08T03:46:18.413Z,7.32
2023-02-08T03:49:08.918Z,8.27
2023-02-08T03:51:59.564Z,7.32
2023-02-08T03:54:52.697Z,8.00
2023-02-08T03:57:47.534Z,7.03
2023-02-08T04:00:40.556Z,7.30
2023-02-08T04:03:31.682Z,8.35
2023-02-08T04:06:19.518Z,8.15
2023-02-08T04:09:07.251Z,7.85
2023-02-08T04:11:55.987Z,9.07
2023-02-08T04:14:43.363Z,8.75
2023-02-08T04:17:30.719Z,8.73
2023-02-08T04:20:18.324Z,8.68
2023-02-08T04:23:06.061Z,8.35
2023-02-08T04:25:53.664Z,8.65
2023-02-08T04:28:42.457Z,8.43
2023-02-08T04:31:30.309Z,9.90
2023-02-08T04:34:18.349Z,8.30
2023-02-08T04:37:06.048Z,9.82
2023-02-08T04:39:53.829Z,9.20
2023-02-08T04:42:41.416Z,10.55
2023-02-08T04:45:32.202Z,9.52
2023-02-08T04:48:19.946Z,10.50
2023-02-08T04:51:07.377Z,10.05
2023-02-08T04:53:54.886Z,10.13
2023-02-08T04:56:42.376Z,10.93
2023-02-08T04:59:29.942Z,9.40
2023-02-08T05:02:18.618Z,10.40
2023-02-08T05:05:06.575Z,10.98
2023-02-08T05:07:54.366Z,11.23
2023-02-08T05:10:46.991Z,11.75
2023-02-08T05:13:34.520Z,10.82
2023-02-08T05:16:22.139Z,13.20
2023-02-08T05:19:12.080Z,13.52
2023-02-08T05:21:59.469Z,13.48
2023-02-08T05:24:46.949Z,13.70
2023-02-08T05:27:35.921Z,16.35
2023-02-08T05:30:23.511Z,13.85
2023-02-08T05:33:11.090Z,14.55
2023-02-08T05:36:00.356Z,14.07
2023-02-08T05:38:48.178Z,13.70
2023-02-08T05:41:35.807Z,12.85
2023-02-08T05:44:23.350Z,13.43
2023-02-08T05:47:11.083Z,11.20
2023-02-08T05:49:58.409Z,12.77
2023-02-08T05:52:47.449Z,14.07
2023-02-08T05:55:35.208Z,12.98
2023-02-08T05:58:22.704Z,14.30
2023-02-08T06:01:11.534Z,14.13
2023-02-08T06:04:00.645Z,13.07
2023-02-08T06:06:48.108Z,13.85
2023-02-08T06:09:36.962Z,13.73
2023-02-08T06:12:24.689Z,13.48
2023-02-08T06:15:12.199Z,11.00
2023-02-08T06:18:00.136Z,11.68
2023-02-08T06:20:47.894Z,11.60
2023-02-08T06:23:35.724Z,10.82
2023-02-08T06:26:24.627Z,13.50
2023-02-08T06:29:11.985Z,12.23
2023-02-08T06:31:59.844Z,12.23
2023-02-08T06:34:48.485Z,13.43
2023-02-08T06:37:35.778Z,12.02
2023-02-08T06:40:23.954Z,13.70
2023-02-08T06:43:13.574Z,14.57
2023-02-08T06:46:04.873Z,12.48
2023-02-08T06:48:52.659Z,13.18
2023-02-08T06:51:41.486Z,11.25
2023-02-08T06:54:29.193Z,10.88
2023-02-08T06:57:16.840Z,11.40
2023-02-08T07:00:06.978Z,10.10
2023-02-08T07:02:54.396Z,10.15
2023-02-08T07:05:49.464Z,10.25
2023-02-08T07:08:43.062Z,11.00
2023-02-08T07:11:30.408Z,10.90
2023-02-08T07:14:17.733Z,9.30
2023-02-08T07:17:06.663Z,9.68
2023-02-08T07:19:54.675Z,12.75
2023-02-08T07:22:42.515Z,13.20
2023-02-08T07:25:30.170Z,17.67
2023-02-08T07:28:17.853Z,18.48
2023-02-08T07:31:07.203Z,21.40
2023-02-08T07:33:56.215Z,27.05
2023-02-08T07:36:43.795Z,25.65
2023-02-08T07:39:31.524Z,21.67
2023-02-08T07:42:19.597Z,20.15
2023-02-08T07:45:15.987Z,21.58
2023-02-08T07:48:03.418Z,19.50
2023-02-08T07:50:52.177Z,19.67
2023-02-08T07:53:40.558Z,21.00
2023-02-08T07:56:27.841Z,19.92
2023-02-08T07:59:16.164Z,23.80
2023-02-08T08:02:03.596Z,23.98
2023-02-08T08:04:54.156Z,26.95
2023-02-08T08:07:42.953Z,27.08
2023-02-08T08:10:30.302Z,26.25
2023-02-08T08:13:18.007Z,26.00
2023-02-08T08:16:05.836Z,25.90
2023-02-08T08:18:53.364Z,27.90
2023-02-08T08:21:40.821Z,25.83
2023-02-08T08:24:31.400Z,24.10
2023-02-08T08:27:18.867Z,26.80
2023-02-08T08:30:08.481Z,25.23
2023-02-08T08:32:56.171Z,24.13
2023-02-08T08:35:44.422Z,25.73
2023-02-08T08:38:31.955Z,23.02
2023-02-08T08:41:22.391Z,24.15
2023-02-08T08:44:09.870Z,21.35
2023-02-08T08:46:57.786Z,23.15
2023-02-08T08:49:45.534Z,23.45
2023-02-08T08:52:33.294Z,25.50
2023-02-08T08:55:20.902Z,23.80
2023-02-08T08:58:09.635Z,22.85
2023-02-08T09:00:58.913Z,25.33
2023-02-08T09:03:46.793Z,28.85
2023-02-08T09:06:35.060Z,26.05
2023-02-08T09:09:23.295Z,23.83
2023-02-08T09:12:10.928Z,24.25
2023-02-08T09:14:59.728Z,24.55
2023-02-08T09:17:47.593Z,25.73
2023-02-08T09:20:35.150Z,24.65
2023-02-08T09:23:22.448Z,24.90
2023-02-08T09:26:13.324Z,26.65
2023-02-08T09:29:01.006Z,25.60
2023-02-08T09:31:50.120Z,25.13
2023-02-08T09:34:37.805Z,25.13
2023-02-08T09:37:25.247Z,23.95
2023-02-08T09:40:23.784Z,23.10
2023-02-08T09:43:19.594Z,23.40
2023-02-08T09:46:11.970Z,22.77
2023-02-08T09:49:04.301Z,22.67
2023-02-08T09:51:55.352Z,22.80
2023-02-08T09:54:48.706Z,22.35
2023-02-08T09:57:37.354Z,22.15
2023-02-08T10:00:33.232Z,22.00
2023-02-08T10:03:30.809Z,22.17
2023-02-08T10:06:21.244Z,21.02
2023-02-08T10:09:15.182Z,21.33
2023-02-08T10:12:13.941Z,21.73
2023-02-08T10:15:11.541Z,20.38
2023-02-08T10:18:14.502Z,20.23
2023-02-08T10:21:25.962Z,20.92
2023-02-08T10:24:31.906Z,21.00
2023-02-08T10:27:25.761Z,21.08
2023-02-08T10:30:26.002Z,19.17
2023-02-08T10:33:19.879Z,18.38
2023-02-08T10:36:15.728Z,20.80
2023-02-08T10:39:11.520Z,19.33
2023-02-08T10:42:00.225Z,17.65
2023-02-08T10:45:04.067Z,18.70
2023-02-08T10:47:55.989Z,17.35
2023-02-08T10:50:46.083Z,18.23
2023-02-08T10:53:33.643Z,20.08
2023-02-08T10:56:35.892Z,19.00
2023-02-08T10:59:27.044Z,18.90
2023-02-08T11:02:22.400Z,19.67
2023-02-08T11:05:13.505Z,20.48
2023-02-08T11:08:09.622Z,19.65
2023-02-08T11:10:59.892Z,16.90
2023-02-08T11:13:51.457Z,19.33
2023-02-08T11:16:39.796Z,18.70
2023-02-08T11:19:35.538Z,20.08
2023-02-08T11:22:26.125Z,20.03
2023-02-08T11:25:35.770Z,18.73
2023-02-08T11:28:27.528Z,19.95
2023-02-08T11:31:20.978Z,19.90
2023-02-08T11:34:10.285Z,19.95
2023-02-08T11:37:00.498Z,21.80
2023-02-08T11:39:54.329Z,22.73
2023-02-08T11:42:44.323Z,19.63
2023-02-08T11:45:34.322Z,21.10
2023-02-08T11:48:27.334Z,19.08
2023-02-08T11:51:24.577Z,18.88
2023-02-08T11:54:41.406Z,19.95
2023-02-08T11:57:29.152Z,21.30
2023-02-08T12:00:20.997Z,19.58
2023-02-08T12:03:15.709Z,18.98
2023-02-08T12:06:17.400Z,19.42
2023-02-08T12:09:18.041Z,20.35
2023-02-08T12:12:18.807Z,21.90
2023-02-08T12:15:13.218Z,21.65
2023-02-08T12:18:12.700Z,19.55
2023-02-08T12:21:08.343Z,17.80
2023-02-08T12:23:58.722Z,18.90
2023-02-08T12:27:01.568Z,19.15
2023-02-08T12:29:54.549Z,19.98
2023-02-08T12:33:29.286Z,20.17
2023-02-08T12:36:36.568Z,18.02
2023-02-08T12:39:54.098Z,18.00
2023-02-08T12:42:54.250Z,18.38
2023-02-08T12:46:06.276Z,19.10
2023-02-08T12:49:04.220Z,18.83
2023-02-08T12:52:03.207Z,21.00
2023-02-08T12:54:55.549Z,20.50
2023-02-08T12:57:46.020Z,20.48
2023-02-08T13:00:35.891Z,19.00
2023-02-08T13:03:36.461Z,18.55
2023-02-08T13:06:26.686Z,21.88
2023-02-08T13:09:23.494Z,22.58
2023-02-08T13:12:17.255Z,21.08
2023-02-08T13:15:13.749Z,23.27
2023-02-08T13:18:16.743Z,20.27
2023-02-08T13:21:07.909Z,22.42
2023-02-08T13:23:56.297Z,24.15
2023-02-08T13:26:45.740Z,21.13
2023-02-08T13:29:33.715Z,19.50
2023-02-08T13:32:30.234Z,20.63
2023-02-08T13:35:20.317Z,18.63
2023-02-08T13:38:24.837Z,20.90
2023-02-08T13:41:17.779Z,19.52
2023-02-08T13:44:17.894Z,18.58
2023-02-08T13:47:06.328Z,17.98
2023-02-08T13:49:57.037Z,18.52
2023-02-08T13:52:52.601Z,20.10
2023-02-08T13:55:56.796Z,19.95
2023-02-08T13:59:07.118Z,20.33
2023-02-08T14:02:27.081Z,21.23
2023-02-08T14:05:45.348Z,21.33
2023-02-08T14:08:41.819Z,19.27
2023-02-08T14:11:40.382Z,19.50
2023-02-08T14:14:31.435Z,21.25
2023-02-08T14:17:23.670Z,20.88
2023-02-08T14:20:20.785Z,19.55
2023-02-08T14:23:22.319Z,20.30
2023-02-08T14:26:11.727Z,20.30
2023-02-08T14:29:03.417Z,19.17
2023-02-08T14:31:53.474Z,18.52
2023-02-08T14:34:41.979Z,17.42
2023-02-08T14:37:31.538Z,17.25
2023-02-08T14:40:48.773Z,18.65
2023-02-08T14:43:38.549Z,18.45
2023-02-08T14:46:45.093Z,17.02
2023-02-08T14:49:40.803Z,20.65
2023-02-08T14:52:30.327Z,18.58
2023-02-08T14:55:21.849Z,17.70
2023-02-08T14:58:14.164Z,19.48
2023-02-08T15:01:04.130Z,17.90
2023-02-08T15:03:55.528Z,19.52
2023-02-08T15:07:02.251Z,18.75
2023-02-08T15:09:49.790Z,19.30
2023-02-08T15:12:40.242Z,19.50
2023-02-08T15:15:31.608Z,19.73
2023-02-08T15:18:23.468Z,20.02
2023-02-08T15:21:18.012Z,20.52
2023-02-08T15:24:15.877Z,20.17
2023-02-08T15:27:03.204Z,19.92
2023-02-08T15:29:50.688Z,17.35
2023-02-08T15:32:38.426Z,18.40
2023-02-08T15:35:27.326Z,20.08
2023-02-08T15:38:19.500Z,19.52
2023-02-08T15:41:10.760Z,18.23
2023-02-08T15:44:04.695Z,17.85
2023-02-08T15:49:44.112Z,18.33
2023-02-08T15:52:36.161Z,17.92
2023-02-08T15:55:24.286Z,20.55
2023-02-08T15:58:22.042Z,19.05
2023-02-08T16:01:16.308Z,17.67
2023-02-08T16:04:08.374Z,17.80
2023-02-08T16:06:59.277Z,20.75
2023-02-08T16:09:48.553Z,20.25
2023-02-08T16:12:37.187Z,18.60
2023-02-08T16:15:45.068Z,20.30
2023-02-08T16:18:41.650Z,20.20
2023-02-08T16:21:34.018Z,19.40
2023-02-08T16:24:25.342Z,21.15
2023-02-08T16:27:21.566Z,20.65
2023-02-08T16:30:19.042Z,20.23
2023-02-08T16:33:09.894Z,20.75
2023-02-08T16:36:01.922Z,26.42
2023-02-08T16:39:46.954Z,29.00
2023-02-08T16:42:36.916Z,26.88
2023-02-08T16:45:24.338Z,25.17
2023-02-08T16:48:33.434Z,23.08
2023-02-08T16:51:23.033Z,22.02
2023-02-08T16:54:15.364Z,20.77
2023-02-08T16:57:05.920Z,22.17
2023-02-08T16:59:56.785Z,23.45
2023-02-08T17:02:44.295Z,25.65
2023-02-08T17:05:37.674Z,22.98
2023-02-08T17:08:25.345Z,25.08
2023-02-08T17:11:12.801Z,25.92
2023-02-08T17:14:00.211Z,25.58
2023-02-08T17:16:47.731Z,25.15
2023-02-08T17:19:35.352Z,24.08
2023-02-08T17:22:24.052Z,25.73
2023-02-08T17:25:15.606Z,26.23
2023-02-08T17:28:05.172Z,31.67
2023-02-08T17:30:53.272Z,38.08
2023-02-08T17:33:41.180Z,47.03
2023-02-08T17:36:28.669Z,38.53
2023-02-08T17:39:17.873Z,39.22
2023-02-08T17:42:05.548Z,40.75
2023-02-08T17:44:53.136Z,37.58
2023-02-08T17:47:41.800Z,37.22
2023-02-08T17:50:29.230Z,39.70
2023-02-08T17:53:17.241Z,42.08
2023-02-08T17:56:08.419Z,51.35
2023-02-08T17:58:57.746Z,49.67
2023-02-08T18:01:45.771Z,52.40
2023-02-08T18:04:33.401Z,51.80
2023-02-08T18:07:21.649Z,51.95
2023-02-08T18:10:10.498Z,43.05
2023-02-08T18:13:00.204Z,44.50
2023-02-08T18:15:48.356Z,42.45
2023-02-08T18:18:35.661Z,43.08
2023-02-08T18:21:25.591Z,39.83
2023-02-08T18:24:13.036Z,41.13
2023-02-08T18:27:00.510Z,41.15
2023-02-08T18:29:49.593Z,38.22
2023-02-08T18:32:37.047Z,40.63
2023-02-08T18:35:24.440Z,41.15
2023-02-08T18:38:12.359Z,40.38
2023-02-08T18:40:59.876Z,38.42
2023-02-08T18:43:47.416Z,40.35
2023-02-08T18:46:36.524Z,37.13
2023-02-08T18:49:24.386Z,36.10
2023-02-08T18:52:13.481Z,37.85
2023-02-08T18:55:01.257Z,35.08
2023-02-08T18:57:49.026Z,41.63
2023-02-08T19:00:36.680Z,38.28
2023-02-08T19:03:25.655Z,37.70
2023-02-08T19:06:16.361Z,42.38
2023-02-08T19:09:06.472Z,41.58
2023-02-08T19:11:54.651Z,38.80
2023-02-08T19:14:43.275Z,39.92
2023-02-08T19:17:30.699Z,42.17
2023-02-08T19:20:19.675Z,42.47
2023-02-08T19:23:07.397Z,45.40
2023-02-08T19:25:55.284Z,50.03
2023-02-08T19:28:42.720Z,52.75
2023-02-08T19:31:30.742Z,55.30
2023-02-08T19:34:18.627Z,54.25
2023-02-08T19:37:07.627Z,50.70
2023-02-08T19:39:55.507Z,57.80
2023-02-08T19:42:44.539Z,50.42
2023-02-08T19:45:32.305Z,56.97
2023-02-08T19:48:22.074Z,46.95
2023-02-08T19:51:10.635Z,48.45
2023-02-08T19:54:01.032Z,47.55
2023-02-08T19:56:50.340Z,46.15
2023-02-08T19:59:37.921Z,51.20
2023-02-08T20:02:27.415Z,50.53
2023-02-08T20:05:15.328Z,42.38
2023-02-08T20:08:02.964Z,37.28
2023-02-08T20:10:51.849Z,44.15
2023-02-08T20:13:39.454Z,47.67
2023-02-08T20:16:31.238Z,56.88
2023-02-08T20:19:19.084Z,62.30
2023-02-08T20:22:06.820Z,66.85
2023-02-08T20:24:54.699Z,63.10
2023-02-08T20:27:43.821Z,62.10
2023-02-08T20:30:31.186Z,61.00
2023-02-08T20:33:18.620Z,58.13
2023-02-08T20:36:10.987Z,60.20
2023-02-08T20:38:59.386Z,59.28
2023-02-08T20:41:47.599Z,54.00
2023-02-08T20:44:36.777Z,55.92
2023-02-08T20:47:24.191Z,65.47
2023-02-08T20:50:18.771Z,69.20
2023-02-08T20:53:07.534Z,68.57
2023-02-08T20:55:54.905Z,69.00
2023-02-08T20:58:42.955Z,70.85
2023-02-08T21:01:41.794Z,70.00
2023-02-08T21:04:29.562Z,64.88
2023-02-08T21:07:17.644Z,64.60
2023-02-08T21:10:05.273Z,61.67
2023-02-08T21:12:52.938Z,62.83
2023-02-08T21:15:43.714Z,59.85
2023-02-08T21:18:32.777Z,60.03
2023-02-08T21:21:21.146Z,55.17
2023-02-08T21:24:08.972Z,58.00
2023-02-08T21:26:57.814Z,57.45
2023-02-08T21:29:45.240Z,57.92
2023-02-08T21:32:33.036Z,60.08
2023-02-08T21:35:22.044Z,61.78
2023-02-08T21:38:09.706Z,58.38
2023-02-08T21:40:57.043Z,56.38
2023-02-08T21:43:44.726Z,58.10
2023-02-08T21:46:33.154Z,60.95
2023-02-08T21:49:38.010Z,56.53
2023-02-08T21:52:44.412Z,55.65
2023-02-08T21:55:31.986Z,57.25
2023-02-08T21:58:19.652Z,51.95
2023-02-08T22:01:07.273Z,51.25
2023-02-08T22:03:54.586Z,55.38
2023-02-08T22:06:50.732Z,56.08
2023-02-08T22:09:41.617Z,57.70
2023-02-08T22:12:28.903Z,60.20
2023-02-08T22:15:18.507Z,60.80
2023-02-08T22:18:06.418Z,56.38
2023-02-08T22:20:54.025Z,54.65
2023-02-08T22:23:41.738Z,56.17
2023-02-08T22:26:30.672Z,55.13
2023-02-08T22:29:18.200Z,54.80
2023-02-08T22:32:07.561Z,51.67
2023-02-08T22:34:55.160Z,53.78
2023-02-08T22:37:42.818Z,48.83
2023-02-08T22:40:30.637Z,48.72
2023-02-08T22:43:19.710Z,52.70
2023-02-08T22:46:07.898Z,52.78
2023-02-08T22:48:55.783Z,52.08
2023-02-08T22:51:43.517Z,48.70
2023-02-08T22:54:31.089Z,50.28
2023-02-08T22:57:18.986Z,47.95
2023-02-08T23:00:10.301Z,48.05
2023-02-08T23:02:58.054Z,48.38
2023-02-08T23:05:48.224Z,50.33
2023-02-08T23:08:36.981Z,47.05
2023-02-08T23:11:24.985Z,47.22
2023-02-08T23:14:12.630Z,48.25
2023-02-08T23:17:01.734Z,49.10
2023-02-08T23:19:49.555Z,45.20
2023-02-08T23:22:37.932Z,51.15
2023-02-08T23:25:25.674Z,52.75
2023-02-08T23:28:13.833Z,50.58
2023-02-08T23:31:01.588Z,48.15
2023-02-08T23:33:51.314Z,47.45
2023-02-08T23:36:38.916Z,46.78
2023-02-08T23:39:26.571Z,47.28
2023-02-08T23:42:25.480Z,48.92
2023-02-08T23:45:13.056Z,46.83
2023-02-08T23:48:00.794Z,42.20
2023-02-08T23:50:58.026Z,44.22
2023-02-08T23:53:45.842Z,48.08
2023-02-08T23:56:33.658Z,45.33
2023-02-08T23:59:21.552Z,46.25
